Miami, Florida
Traffic Map
Current Weather Conditions
Miami, Florida
Broken Clouds
Broken Clouds
26°
Feels Like: 28°
Wind Chill: 26° Ceiling: 25000
Heat Index: 28° Visibility: 10mi
Dew Point: 24° Wind: 0mph
Humidity: 88% Direction: ° ()
Pressure: 30.01in Gusts: 0mph
Raw Report DataKMIA 010453Z 00000KT 10SM FEW060 SCT090 BKN250 26/24 A3001 RMK AO2 SLP161 T02610239 403280244
Traffic Incident Summary
Active as of:
Severity:
Category:
InformationThere was an issue retrieving the traffic information for this location. Please try a different location or try again shortly.
Advertisements
Track Severe Weather on mobile